Time;durP1;ratioP1;P1;durP2;ratioP2;P2;SDS_P1;SDS_P2;PMS_P1;PMS_P2;Temp;Humidity;BMP_temperature;BMP_pressure;BME280_temperature;BME280_humidity;BME280_pressure;Samples;Min_cycle;Max_cycle;Signal;HPM_P1;HPM_P2
2023/01/26 00:01:13;;;;;;;72.78;30.52;;;1.20;99.90;;;;;;4804159;29;20213;-89
2023/01/26 00:03:38;;;;;;;82.28;33.33;;;1.20;99.90;;;;;;4803482;29;20210;-89
2023/01/26 00:06:05;;;;;;;82.00;30.40;;;1.10;1.00;;;;;;4803823;29;20200;-88
2023/01/26 00:08:36;;;;;;;86.40;35.72;;;1.10;1.00;;;;;;4803902;29;20385;-88
2023/01/26 00:11:03;;;;;;;85.13;32.30;;;1.10;1.00;;;;;;4803023;29;20248;-88
2023/01/26 00:13:29;;;;;;;75.00;32.92;;;1.10;1.00;;;;;;4791403;29;20214;-88
2023/01/26 00:15:54;;;;;;;71.47;30.80;;;1.10;1.00;;;;;;4788430;29;20189;-88
2023/01/26 00:18:20;;;;;;;75.73;32.17;;;1.10;1.00;;;;;;4802101;29;20650;-88
2023/01/26 00:20:45;;;;;;;80.47;31.10;;;1.10;1.00;;;;;;4803326;29;20199;-88
2023/01/26 00:23:11;;;;;;;70.17;29.47;;;1.10;1.00;;;;;;4792211;29;20226;-88
2023/01/26 00:25:39;;;;;;;80.87;33.13;;;1.20;1.00;;;;;;4792949;29;20194;-89
2023/01/26 00:28:04;;;;;;;86.60;32.15;;;1.20;1.00;;;;;;4802804;29;20233;-89
2023/01/26 00:30:30;;;;;;;81.00;32.73;;;1.20;1.00;;;;;;4801707;29;20249;-88
2023/01/26 00:32:56;;;;;;;83.40;33.87;;;1.30;1.00;;;;;;4801256;29;20225;-88
2023/01/26 00:35:22;;;;;;;79.93;32.83;;;1.30;99.90;;;;;;4803429;29;20553;-88
2023/01/26 00:37:48;;;;;;;81.45;34.20;;;1.30;99.90;;;;;;4801295;29;20208;-88
2023/01/26 00:40:13;;;;;;;73.00;31.00;;;1.20;99.90;;;;;;4789872;29;20194;-89
2023/01/26 00:42:39;;;;;;;78.00;30.17;;;1.20;99.90;;;;;;4801472;29;20775;-88
2023/01/26 00:45:05;;;;;;;85.80;32.47;;;1.20;99.90;;;;;;4803531;29;20186;-88
2023/01/26 00:47:31;;;;;;;79.28;31.38;;;1.10;99.90;;;;;;4791691;29;20281;-87
2023/01/26 00:49:56;;;;;;;82.70;33.10;;;1.10;1.00;;;;;;4793955;29;20306;-88
2023/01/26 00:52:22;;;;;;;87.73;30.23;;;1.10;1.00;;;;;;4792721;29;20244;-88
2023/01/26 00:54:47;;;;;;;82.40;33.20;;;1.10;17.00;;;;;;4802953;29;20198;-88
2023/01/26 00:57:13;;;;;;;87.50;33.90;;;1.10;1.00;;;;;;4801247;29;20191;-89
2023/01/26 00:59:38;;;;;;;75.53;33.27;;;1.00;25.20;;;;;;4807220;29;20319;-88
2023/01/26 01:02:04;;;;;;;83.47;32.73;;;1.00;99.90;;;;;;4805665;29;20274;-88
2023/01/26 01:04:30;;;;;;;78.90;31.93;;;1.00;99.90;;;;;;4805171;29;20277;-88
2023/01/26 01:06:56;;;;;;;82.20;31.25;;;1.00;99.90;;;;;;4799886;29;20193;-88
2023/01/26 01:09:22;;;;;;;97.53;33.33;;;1.00;99.90;;;;;;4805881;29;20264;-88
2023/01/26 01:11:47;;;;;;;91.00;35.40;;;1.10;1.00;;;;;;4805885;29;20202;-88
2023/01/26 01:14:14;;;;;;;97.57;38.70;;;1.00;1.00;;;;;;4787972;29;20561;-88
2023/01/26 01:16:41;;;;;;;91.97;35.17;;;1.00;1.00;;;;;;4802146;29;20194;-89
2023/01/26 01:19:07;;;;;;;90.90;36.95;;;1.00;49.10;;;;;;4788838;29;20263;-89
2023/01/26 01:21:33;;;;;;;75.83;30.97;;;1.10;99.90;;;;;;4800853;29;20198;-88
2023/01/26 01:23:59;;;;;;;85.17;35.07;;;1.10;99.90;;;;;;4801730;29;20688;-88
2023/01/26 01:26:25;;;;;;;95.85;31.05;;;1.10;99.90;;;;;;4802200;29;20550;-89
2023/01/26 01:28:54;;;;;;;91.05;32.63;;;1.10;99.90;;;;;;4802672;29;20206;-89
2023/01/26 01:31:20;;;;;;;84.95;33.03;;;1.10;99.90;;;;;;4802977;29;20201;-88
2023/01/26 01:33:46;;;;;;;76.45;29.30;;;1.10;99.90;;;;;;4802638;29;20217;-88
2023/01/26 01:36:14;;;;;;;86.07;32.50;;;1.10;99.90;;;;;;4803688;29;20233;-87
2023/01/26 01:38:40;;;;;;;84.93;33.10;;;1.10;99.90;;;;;;4799983;29;20208;-88
2023/01/26 01:41:06;;;;;;;85.13;33.67;;;1.10;99.90;;;;;;4802155;29;20744;-89
2023/01/26 01:43:32;;;;;;;83.47;30.73;;;1.10;99.90;;;;;;4800975;29;20260;-88
2023/01/26 01:46:00;;;;;;;76.00;29.30;;;1.10;99.90;;;;;;4806830;29;20222;-89
2023/01/26 01:49:04;;;;;;;83.22;32.00;;;1.10;99.90;;;;;;4806512;29;20206;-88
2023/01/26 01:51:34;;;;;;;82.95;29.75;;;1.10;1.00;;;;;;4765000;30;20241;-88
2023/01/26 01:54:06;;;;;;;75.40;30.48;;;1.10;1.00;;;;;;4764648;30;20277;-88
2023/01/26 01:56:34;;;;;;;72.63;27.95;;;1.10;1.00;;;;;;4788754;29;20207;-88
2023/01/26 01:59:02;;;;;;;75.78;30.17;;;1.10;1.00;;;;;;4803872;29;20190;-88
2023/01/26 02:01:28;;;;;;;71.82;29.05;;;1.10;1.00;;;;;;4796077;29;20195;-88
2023/01/26 02:03:58;;;;;;;78.88;30.77;;;1.10;1.00;;;;;;4805292;29;20206;-87
2023/01/26 02:06:39;;;;;;;79.18;29.60;;;1.10;1.00;;;;;;4806446;29;20835;-88
2023/01/26 02:09:06;;;;;;;74.45;28.85;;;1.10;1.00;;;;;;4789191;29;20217;-88
2023/01/26 02:11:44;;;;;;;77.20;28.70;;;1.10;1.00;;;;;;4803373;29;20236;-88
2023/01/26 02:14:13;;;;;;;84.68;28.75;;;1.00;47.80;;;;;;4800734;29;20210;-88
2023/01/26 02:16:38;;;;;;;84.50;29.25;;;1.00;99.90;;;;;;4804636;29;20186;-88
2023/01/26 02:19:15;;;;;;;77.80;26.83;;;1.10;99.90;;;;;;4806322;29;20199;-87
2023/01/26 02:21:43;;;;;;;67.38;27.70;;;1.10;99.90;;;;;;4804931;29;20193;-88
2023/01/26 02:24:31;;;;;;;73.13;25.92;;;1.10;99.90;;;;;;4805204;29;20237;-89
2023/01/26 02:26:57;;;;;;;78.75;27.70;;;1.10;99.90;;;;;;4801479;29;20273;-88
2023/01/26 02:29:22;;;;;;;71.77;25.50;;;1.10;92.40;;;;;;4803235;29;20771;-88
2023/01/26 02:31:48;;;;;;;71.03;26.03;;;1.10;99.90;;;;;;4803295;29;20190;-88
2023/01/26 02:34:14;;;;;;;87.30;28.30;;;1.10;99.90;;;;;;4805689;29;20297;-88
2023/01/26 02:36:40;;;;;;;88.35;30.17;;;1.10;99.90;;;;;;4804998;29;20722;-88
2023/01/26 02:39:36;;;;;;;65.50;24.30;;;1.10;99.90;;;;;;4804988;29;20269;-89
2023/01/26 02:44:46;;;;;;;60.85;22.70;;;1.00;99.90;;;;;;4805092;29;20206;-89
2023/01/26 02:47:15;;;;;;;68.37;26.60;;;1.10;99.90;;;;;;4802304;29;20194;-88
2023/01/26 02:49:46;;;;;;;73.10;26.30;;;1.10;99.90;;;;;;4803957;29;20226;-89
2023/01/26 02:52:24;;;;;;;71.30;26.70;;;1.10;99.90;;;;;;4803929;29;20191;-88
2023/01/26 02:57:34;;;;;;;72.75;25.88;;;1.10;1.00;;;;;;4804994;29;20208;-88
2023/01/26 03:00:00;;;;;;;69.67;25.50;;;1.10;1.00;;;;;;4803743;29;20195;-88
2023/01/26 03:02:26;;;;;;;66.10;24.35;;;1.10;1.00;;;;;;4789980;29;20232;-88
2023/01/26 03:04:51;;;;;;;66.57;26.27;;;1.10;1.00;;;;;;4791905;29;20202;-88
2023/01/26 03:07:17;;;;;;;78.33;24.47;;;1.10;1.00;;;;;;4808468;29;20805;-87
2023/01/26 03:09:42;;;;;;;56.83;22.53;;;1.10;1.00;;;;;;4807443;29;20206;-88
2023/01/26 03:12:08;;;;;;;52.60;21.23;;;1.10;1.00;;;;;;4807580;29;20278;-88
2023/01/26 03:14:33;;;;;;;54.93;21.73;;;1.20;1.00;;;;;;4797763;29;20277;-88
2023/01/26 03:16:59;;;;;;;55.80;21.77;;;1.10;1.00;;;;;;4808221;29;20197;-88
2023/01/26 03:27:42;;;;;;;59.33;23.05;;;1.20;1.00;;;;;;4801868;29;20281;-90
2023/01/26 03:30:09;;;;;;;63.42;23.48;;;1.20;1.00;;;;;;4800918;29;20218;-88
2023/01/26 03:32:34;;;;;;;56.22;21.48;;;1.20;1.00;;;;;;4804631;29;20655;-88
2023/01/26 03:35:00;;;;;;;69.40;24.60;;;1.20;1.00;;;;;;4792772;29;20213;-88
2023/01/26 03:37:26;;;;;;;57.53;23.40;;;1.30;1.00;;;;;;4793542;29;20194;-88
2023/01/26 03:56:24;;;;;;;78.78;28.58;;;1.30;1.00;;;;;;4802309;29;20232;-88
2023/01/26 03:59:06;;;;;;;81.10;25.30;;;1.30;1.00;;;;;;4802848;29;20617;-89
2023/01/26 04:01:33;;;;;;;60.42;23.38;;;1.30;1.00;;;;;;4800392;29;20294;-89
2023/01/26 04:09:29;;;;;;;75.15;28.48;;;1.30;1.00;;;;;;4804308;29;20240;-88
2023/01/26 04:11:56;;;;;;;83.30;28.33;;;1.30;1.00;;;;;;4800442;29;20191;-88
2023/01/26 04:22:43;;;;;;;90.38;27.85;;;1.30;1.00;;;;;;4803665;29;20228;-88
2023/01/26 04:25:12;;;;;;;84.57;27.08;;;1.30;1.00;;;;;;4803424;29;20652;-88
2023/01/26 04:27:39;;;;;;;91.55;28.38;;;1.30;1.00;;;;;;4801781;29;20191;-88
2023/01/26 04:30:07;;;;;;;74.82;26.90;;;1.30;1.00;;;;;;4791052;29;20218;-88
2023/01/26 04:32:32;;;;;;;91.07;27.60;;;1.40;1.00;;;;;;4802923;29;20241;-89
2023/01/26 04:34:58;;;;;;;90.60;31.23;;;1.40;1.00;;;;;;4803122;29;20690;-89
2023/01/26 04:37:23;;;;;;;81.73;26.17;;;1.40;1.00;;;;;;4801600;29;20191;-88
2023/01/26 04:39:49;;;;;;;83.40;26.77;;;1.40;1.00;;;;;;4794609;29;20259;-88
2023/01/26 04:42:14;;;;;;;91.10;28.47;;;1.40;1.00;;;;;;4803403;29;20659;-89
2023/01/26 04:44:40;;;;;;;102.23;29.33;;;1.40;1.00;;;;;;4801445;29;20194;-88
2023/01/26 04:47:05;;;;;;;102.73;30.70;;;1.40;1.00;;;;;;4802550;29;20198;-89
2023/01/26 04:49:31;;;;;;;83.10;30.00;;;1.40;19.60;;;;;;4801843;29;20710;-89
2023/01/26 04:51:56;;;;;;;101.73;35.80;;;1.40;59.10;;;;;;4800695;29;20668;-88
2023/01/26 04:54:22;;;;;;;113.67;32.77;;;1.40;51.60;;;;;;4791224;29;20210;-89
2023/01/26 04:56:48;;;;;;;104.20;31.67;;;1.50;99.90;;;;;;4802698;29;20182;-88
2023/01/26 04:59:13;;;;;;;112.40;34.10;;;1.50;99.90;;;;;;4802552;29;20190;-88
2023/01/26 05:01:39;;;;;;;103.67;34.07;;;1.50;99.90;;;;;;4786736;29;20201;-88
2023/01/26 05:04:05;;;;;;;107.17;30.47;;;1.50;99.90;;;;;;4803025;29;20214;-88
2023/01/26 05:06:30;;;;;;;124.97;34.87;;;1.50;99.90;;;;;;4802619;29;20522;-87
2023/01/26 05:08:56;;;;;;;106.23;31.87;;;1.50;99.90;;;;;;4801887;29;20544;-88
2023/01/26 05:11:22;;;;;;;108.50;31.17;;;1.50;99.90;;;;;;4802276;29;20199;-88
2023/01/26 05:13:48;;;;;;;115.93;32.70;;;1.50;99.90;;;;;;4794729;29;20225;-88
2023/01/26 05:16:14;;;;;;;120.20;33.33;;;1.50;99.90;;;;;;4802384;29;20247;-88
2023/01/26 05:18:40;;;;;;;117.78;33.25;;;1.50;99.90;;;;;;4801142;29;20483;-88
2023/01/26 05:21:06;;;;;;;107.68;34.05;;;1.50;99.90;;;;;;4806201;29;20281;-88
2023/01/26 05:23:32;;;;;;;116.07;35.80;;;1.50;99.90;;;;;;4805221;29;20255;-88
2023/01/26 05:25:57;;;;;;;107.93;33.33;;;1.50;99.90;;;;;;4799641;29;20443;-89
2023/01/26 05:28:22;;;;;;;119.50;34.27;;;1.60;99.90;;;;;;4805239;29;20290;-88
2023/01/26 05:30:48;;;;;;;122.77;35.80;;;1.70;99.90;;;;;;4806857;29;20619;-87
2023/01/26 05:33:14;;;;;;;121.70;37.17;;;1.70;99.90;;;;;;4812387;29;20298;-88
2023/01/26 05:35:40;;;;;;;113.13;34.72;;;1.70;99.90;;;;;;4806519;29;20621;-88
2023/01/26 05:38:05;;;;;;;124.57;34.20;;;1.70;99.90;;;;;;4793542;29;20190;-88
2023/01/26 05:40:31;;;;;;;138.93;38.10;;;1.70;99.90;;;;;;4797469;29;20202;-88
2023/01/26 05:42:57;;;;;;;132.70;37.27;;;1.60;99.90;;;;;;4803691;29;20236;-88
2023/01/26 05:45:22;;;;;;;154.57;38.57;;;1.60;99.90;;;;;;4805856;29;20190;-88
2023/01/26 05:47:48;;;;;;;161.57;40.27;;;1.60;99.90;;;;;;4805332;29;20194;-89
2023/01/26 05:50:14;;;;;;;178.50;42.23;;;1.50;99.90;;;;;;4791568;29;20628;-88
2023/01/26 05:52:47;;;;;;;175.50;42.90;;;1.40;99.90;;;;;;4804988;29;20249;-88
2023/01/26 05:55:13;;;;;;;213.65;44.97;;;1.40;99.90;;;;;;4792491;29;20182;-88
2023/01/26 05:57:38;;;;;;;214.63;43.97;;;1.40;99.90;;;;;;4803613;29;20205;-87
2023/01/26 06:00:05;;;;;;;203.63;43.83;;;1.30;99.90;;;;;;4794779;29;20459;-88
2023/01/26 06:02:30;;;;;;;192.20;45.40;;;1.30;1.00;;;;;;4805195;29;20687;-89
2023/01/26 06:04:56;;;;;;;198.73;45.37;;;1.30;1.00;;;;;;4792478;29;20206;-88
2023/01/26 06:07:21;;;;;;;203.93;45.80;;;1.40;1.00;;;;;;4805733;29;20202;-87
2023/01/26 06:09:47;;;;;;;213.77;47.27;;;1.40;1.00;;;;;;4786120;29;20222;-88
2023/01/26 06:12:18;;;;;;;215.53;46.40;;;1.40;1.00;;;;;;4803469;29;20233;-89
2023/01/26 06:14:44;;;;;;;218.82;46.90;;;1.40;1.00;;;;;;4793375;29;20267;-87
2023/01/26 06:17:10;;;;;;;185.20;41.73;;;1.50;1.00;;;;;;4804422;29;20667;-86
2023/01/26 06:19:36;;;;;;;209.85;44.50;;;1.50;1.00;;;;;;4790612;29;20236;-87
2023/01/26 06:22:02;;;;;;;209.30;42.57;;;1.50;1.00;;;;;;4802539;29;20307;-88
2023/01/26 06:24:28;;;;;;;195.05;41.45;;;1.50;1.00;;;;;;4804323;29;20282;-88
2023/01/26 06:26:54;;;;;;;182.38;39.70;;;1.60;1.00;;;;;;4816836;29;20686;-88
2023/01/26 06:29:19;;;;;;;197.50;44.80;;;1.60;1.00;;;;;;4807566;29;20219;-88
2023/01/26 06:31:45;;;;;;;186.93;44.47;;;1.60;1.00;;;;;;4805480;29;20410;-87
2023/01/26 06:34:11;;;;;;;186.27;42.03;;;1.70;1.00;;;;;;4806266;29;20628;-87
2023/01/26 06:36:36;;;;;;;171.33;41.87;;;1.70;1.00;;;;;;4815597;29;20189;-88
2023/01/26 06:39:02;;;;;;;153.33;38.30;;;1.70;1.00;;;;;;4797155;29;20247;-87
2023/01/26 06:41:28;;;;;;;159.65;40.08;;;1.70;1.00;;;;;;4812234;29;20182;-85
2023/01/26 06:43:53;;;;;;;141.63;38.10;;;1.70;1.00;;;;;;4803831;29;20221;-86
2023/01/26 06:46:19;;;;;;;161.03;41.10;;;1.70;1.00;;;;;;4814200;29;20197;-88
2023/01/26 06:48:45;;;;;;;164.17;41.67;;;1.80;1.00;;;;;;4813110;29;20197;-85
2023/01/26 06:51:16;;;;;;;143.17;35.37;;;1.80;1.00;;;;;;4813572;29;20178;-86
2023/01/26 06:53:46;;;;;;;120.00;36.28;;;1.80;1.00;;;;;;4813696;29;20262;-86
2023/01/26 06:56:11;;;;;;;122.70;35.33;;;1.80;1.00;;;;;;4813674;29;20178;-86
2023/01/26 06:58:37;;;;;;;127.23;34.47;;;1.80;1.00;;;;;;4808931;29;20190;-87
2023/01/26 07:01:03;;;;;;;138.30;36.23;;;1.80;1.00;;;;;;4782677;29;20193;-86
2023/01/26 07:03:28;;;;;;;122.87;34.23;;;1.90;1.00;;;;;;4807175;29;20549;-89
2023/01/26 07:05:54;;;;;;;123.57;35.70;;;1.90;1.00;;;;;;4809656;29;20182;-87
2023/01/26 07:08:19;;;;;;;119.07;33.00;;;1.90;1.00;;;;;;4811029;29;20197;-86
2023/01/26 07:10:45;;;;;;;137.30;38.40;;;1.90;1.00;;;;;;4806786;29;20214;-89
2023/01/26 07:13:10;;;;;;;138.30;37.27;;;2.00;1.00;;;;;;4813794;29;20231;-85
2023/01/26 07:15:36;;;;;;;112.07;35.20;;;2.00;1.00;;;;;;4810493;29;20591;-87
2023/01/26 07:18:04;;;;;;;115.43;36.03;;;2.00;1.00;;;;;;4811336;29;20190;-86
2023/01/26 07:20:30;;;;;;;120.65;32.35;;;2.00;1.00;;;;;;4810352;29;20269;-87
2023/01/26 07:22:58;;;;;;;98.03;31.23;;;2.10;1.00;;;;;;4811069;29;20260;-88
2023/01/26 07:25:24;;;;;;;79.97;28.33;;;2.20;1.00;;;;;;4811130;29;20224;-89
2023/01/26 07:27:57;;;;;;;100.50;31.60;;;2.30;1.00;;;;;;4809308;29;20651;-86
2023/01/26 07:30:23;;;;;;;83.18;28.55;;;2.40;1.00;;;;;;4809681;29;20281;-86
2023/01/26 07:32:49;;;;;;;82.10;30.70;;;2.40;1.00;;;;;;4806071;29;20218;-86
2023/01/26 07:35:15;;;;;;;72.70;27.53;;;2.50;99.90;;;;;;4811760;29;20815;-87
2023/01/26 07:37:40;;;;;;;58.37;24.73;;;2.50;99.90;;;;;;4811721;29;20221;-85
2023/01/26 07:40:06;;;;;;;65.27;27.47;;;2.60;99.90;;;;;;4809289;29;20331;-87
2023/01/26 07:42:32;;;;;;;58.70;23.73;;;2.60;99.90;;;;;;4796746;29;20229;-85
2023/01/26 07:44:58;;;;;;;73.50;27.80;;;2.60;99.90;;;;;;4811074;29;20199;-85
2023/01/26 07:47:24;;;;;;;63.92;24.38;;;2.60;99.90;;;;;;4801573;29;20190;-83
2023/01/26 07:49:52;;;;;;;53.40;22.50;;;2.60;99.90;;;;;;4812542;29;20214;-84
2023/01/26 07:52:17;;;;;;;52.80;22.27;;;2.60;99.90;;;;;;4810161;29;20266;-83
2023/01/26 07:54:43;;;;;;;58.20;23.90;;;2.60;99.90;;;;;;4795297;29;20728;-86
2023/01/26 07:57:08;;;;;;;56.10;23.97;;;2.70;99.90;;;;;;4793400;29;20194;-84
2023/01/26 07:59:34;;;;;;;63.90;24.77;;;2.70;39.20;;;;;;4808791;29;20198;-85
2023/01/26 08:02:00;;;;;;;66.07;25.20;;;2.60;1.00;;;;;;4806986;29;20206;-84
2023/01/26 08:04:25;;;;;;;62.33;23.63;;;2.60;1.00;;;;;;4804317;29;20220;-83
2023/01/26 08:06:51;;;;;;;62.77;26.10;;;2.60;5.60;;;;;;4788402;29;20190;-87
2023/01/26 08:09:17;;;;;;;62.70;26.63;;;2.60;1.00;;;;;;4793713;29;20215;-86
2023/01/26 08:11:42;;;;;;;54.57;22.97;;;2.70;1.00;;;;;;4794168;29;20436;-83
2023/01/26 08:14:08;;;;;;;47.57;20.80;;;2.70;1.00;;;;;;4811590;29;20236;-85
2023/01/26 08:16:34;;;;;;;54.90;20.90;;;2.70;1.00;;;;;;4807346;29;20191;-86
2023/01/26 08:18:59;;;;;;;51.60;22.00;;;2.70;1.00;;;;;;4806408;29;20547;-86
2023/01/26 08:21:25;;;;;;;48.00;22.90;;;2.70;1.00;;;;;;4807084;29;20225;-85
2023/01/26 08:23:54;;;;;;;43.73;20.30;;;2.80;1.00;;;;;;4805980;29;20233;-88
2023/01/26 08:26:20;;;;;;;53.40;23.60;;;2.80;1.00;;;;;;4810240;29;20481;-88
2023/01/26 08:28:46;;;;;;;49.47;20.05;;;2.80;1.00;;;;;;4808143;29;20201;-87
2023/01/26 08:31:19;;;;;;;53.25;22.20;;;2.90;99.90;;;;;;4813954;29;20249;-88
2023/01/26 08:33:46;;;;;;;48.63;21.20;;;2.90;99.90;;;;;;4793717;29;20199;-87
2023/01/26 08:36:14;;;;;;;46.00;19.23;;;2.90;99.90;;;;;;4812968;29;20660;-88
2023/01/26 08:38:40;;;;;;;49.15;20.55;;;2.90;99.90;;;;;;4814243;29;20198;-88
2023/01/26 08:41:09;;;;;;;58.28;22.48;;;3.00;99.90;;;;;;4801966;29;20189;-86
2023/01/26 08:43:35;;;;;;;51.80;22.30;;;3.00;99.90;;;;;;4813328;29;20245;-86
2023/01/26 08:46:00;;;;;;;51.33;23.30;;;3.00;99.90;;;;;;4813855;29;20598;-86
2023/01/26 08:48:30;;;;;;;58.60;23.23;;;3.00;1.00;;;;;;4806331;29;20443;-87
2023/01/26 08:50:58;;;;;;;47.63;22.05;;;3.00;1.00;;;;;;4802065;29;20190;-87
2023/01/26 08:53:33;;;;;;;50.67;22.58;;;2.90;1.00;;;;;;4803467;29;20632;-87
2023/01/26 08:56:07;;;;;;;52.38;21.40;;;2.90;1.00;;;;;;4808472;29;20578;-87
2023/01/26 08:58:38;;;;;;;55.55;22.23;;;2.90;1.00;;;;;;4805586;29;20217;-88
2023/01/26 09:01:14;;;;;;;53.53;23.30;;;2.90;1.00;;;;;;4807293;29;20182;-87
2023/01/26 09:03:40;;;;;;;49.25;20.92;;;2.90;1.00;;;;;;4794667;29;20209;-88
2023/01/26 09:06:08;;;;;;;45.73;20.23;;;3.00;1.00;;;;;;4802078;29;20202;-87
2023/01/26 09:08:33;;;;;;;55.25;23.00;;;3.00;1.00;;;;;;4797607;29;20622;-88
2023/01/26 09:10:59;;;;;;;50.13;20.40;;;2.90;1.00;;;;;;4795662;29;20317;-87
2023/01/26 09:13:25;;;;;;;47.03;21.08;;;3.00;1.00;;;;;;4795133;29;20220;-87
2023/01/26 09:15:51;;;;;;;48.27;20.60;;;3.00;1.00;;;;;;4806503;29;20589;-87
2023/01/26 09:18:17;;;;;;;48.33;20.20;;;3.00;1.00;;;;;;4808087;29;20206;-88
2023/01/26 09:20:43;;;;;;;56.43;21.77;;;3.00;1.00;;;;;;4806338;29;20199;-87
2023/01/26 09:23:11;;;;;;;53.90;21.98;;;2.90;99.90;;;;;;4800130;29;20257;-88
2023/01/26 09:25:40;;;;;;;45.67;18.95;;;2.80;1.00;;;;;;4797013;29;20201;-88
2023/01/26 09:28:13;;;;;;;43.03;20.10;;;2.90;1.00;;;;;;4808735;29;20198;-86
2023/01/26 09:30:41;;;;;;;43.45;20.15;;;2.90;1.00;;;;;;4797445;29;20317;-86
2023/01/26 09:33:06;;;;;;;53.08;21.63;;;2.90;1.00;;;;;;4791489;29;20294;-88
2023/01/26 09:35:32;;;;;;;43.97;19.27;;;2.90;1.00;;;;;;4793952;29;20222;-86
2023/01/26 09:37:58;;;;;;;49.63;21.70;;;2.90;2.40;;;;;;4796101;29;20246;-87
2023/01/26 09:41:04;;;;;;;51.77;22.37;;;3.00;1.00;;;;;;4811112;29;20327;-87
2023/01/26 09:43:49;;;;;;;52.95;22.40;;;3.00;1.00;;;;;;4799556;29;20268;-87
2023/01/26 09:46:28;;;;;;;58.92;23.60;;;3.00;1.00;;;;;;4804697;29;20203;-87
2023/01/26 09:49:18;;;;;;;51.55;22.35;;;3.00;1.00;;;;;;4799171;29;20269;-89
2023/01/26 09:52:01;;;;;;;52.17;22.60;;;3.00;1.00;;;;;;4807295;29;20603;-86
2023/01/26 09:54:36;;;;;;;58.42;22.83;;;3.00;1.00;;;;;;4802224;29;20225;-86
2023/01/26 09:57:13;;;;;;;53.95;23.55;;;3.10;1.00;;;;;;4801448;29;20200;-86
2023/01/26 09:59:55;;;;;;;52.90;23.67;;;3.10;1.00;;;;;;4787387;29;20699;-86
2023/01/26 10:02:44;;;;;;;53.97;23.17;;;3.30;1.00;;;;;;4806103;29;20218;-86
2023/01/26 10:05:47;;;;;;;60.20;23.63;;;3.30;1.00;;;;;;4805292;29;20197;-88
2023/01/26 10:08:16;;;;;;;61.17;24.30;;;3.30;99.90;;;;;;4810207;29;20197;-88
2023/01/26 10:11:07;;;;;;;58.28;23.05;;;3.40;1.00;;;;;;4810260;29;20282;-88
2023/01/26 10:13:33;;;;;;;49.90;24.08;;;3.50;1.00;;;;;;4784286;29;20225;-87
2023/01/26 10:16:04;;;;;;;51.23;21.83;;;3.60;99.90;;;;;;4810289;29;20286;-87
2023/01/26 10:18:52;;;;;;;61.53;22.58;;;3.70;1.00;;;;;;4809792;29;20481;-88
2023/01/26 10:21:23;;;;;;;53.28;21.20;;;3.80;1.00;;;;;;4804611;29;20194;-88
2023/01/26 10:23:50;;;;;;;53.60;23.35;;;3.90;1.00;;;;;;4811155;29;20257;-87
2023/01/26 10:26:19;;;;;;;59.03;24.02;;;3.90;99.90;;;;;;4809435;29;20195;-88
2023/01/26 10:28:47;;;;;;;53.55;22.50;;;3.90;99.90;;;;;;4793905;29;20190;-88
2023/01/26 10:31:26;;;;;;;53.22;24.20;;;3.90;99.90;;;;;;4797668;29;20194;-87
2023/01/26 10:33:58;;;;;;;54.53;24.88;;;4.00;99.90;;;;;;4810539;29;20217;-88
2023/01/26 10:36:26;;;;;;;61.30;24.77;;;4.00;99.90;;;;;;4793249;29;20191;-88
2023/01/26 10:38:52;;;;;;;57.78;23.35;;;4.00;99.90;;;;;;4804826;29;20305;-87
2023/01/26 10:41:24;;;;;;;58.37;24.03;;;3.90;1.00;;;;;;4796352;29;20773;-87
2023/01/26 10:43:55;;;;;;;63.60;26.15;;;3.90;1.00;;;;;;4807321;29;20206;-86
2023/01/26 10:46:33;;;;;;;60.65;24.63;;;3.90;1.00;;;;;;4811904;29;20269;-87
2023/01/26 10:49:17;;;;;;;58.78;24.80;;;3.90;99.90;;;;;;4796623;29;20290;-87
2023/01/26 10:51:45;;;;;;;63.17;23.55;;;4.00;99.90;;;;;;4809791;29;20191;-87
2023/01/26 10:54:19;;;;;;;66.40;24.25;;;4.10;99.90;;;;;;4811604;29;20206;-85
2023/01/26 10:56:59;;;;;;;54.90;23.52;;;4.20;99.90;;;;;;4813399;29;20292;-87
2023/01/26 10:59:56;;;;;;;59.10;23.35;;;4.20;99.90;;;;;;4812320;29;20198;-88
2023/01/26 11:02:50;;;;;;;49.92;23.60;;;4.20;1.00;;;;;;4794332;29;20218;-88
2023/01/26 11:05:24;;;;;;;63.53;22.75;;;4.10;99.90;;;;;;4799999;29;20644;-86
2023/01/26 11:08:01;;;;;;;50.95;19.98;;;4.10;99.90;;;;;;4815278;29;20210;-87
2023/01/26 11:10:36;;;;;;;59.20;22.40;;;4.10;1.00;;;;;;4797333;29;20228;-87
2023/01/26 11:13:19;;;;;;;44.90;19.38;;;4.10;1.00;;;;;;4810408;29;20209;-86
2023/01/26 11:16:00;;;;;;;49.03;19.00;;;4.10;1.00;;;;;;4800618;29;20186;-85
2023/01/26 11:18:42;;;;;;;41.72;17.83;;;4.10;1.00;;;;;;4785854;29;20268;-86
2023/01/26 11:21:26;;;;;;;43.97;19.98;;;4.20;1.00;;;;;;4809797;29;20186;-86
2023/01/26 11:24:19;;;;;;;41.25;18.73;;;4.20;1.00;;;;;;4804308;29;20243;-87
2023/01/26 11:27:13;;;;;;;39.53;18.55;;;4.30;1.00;;;;;;4819374;29;20199;-87
2023/01/26 11:30:16;;;;;;;38.92;18.08;;;4.30;1.00;;;;;;4827801;29;20220;-87
2023/01/26 11:33:16;;;;;;;43.55;17.30;;;4.30;99.90;;;;;;4824083;29;20217;-86
2023/01/26 11:36:02;;;;;;;44.47;18.88;;;4.40;1.00;;;;;;4799824;29;20194;-87
2023/01/26 11:39:03;;;;;;;37.90;17.20;;;4.40;99.90;;;;;;4810330;29;20205;-87
2023/01/26 11:42:09;;;;;;;39.67;17.40;;;4.40;99.90;;;;;;4778073;29;20205;-88
2023/01/26 11:44:50;;;;;;;34.58;15.98;;;4.30;99.90;;;;;;4816151;29;20194;-85
2023/01/26 11:47:31;;;;;;;45.25;20.25;;;4.10;1.00;;;;;;4827280;29;20268;-86
2023/01/26 11:50:04;;;;;;;45.55;17.70;;;4.00;99.90;;;;;;4806232;29;20219;-86
2023/01/26 11:52:29;;;;;;;49.78;19.50;;;3.90;99.90;;;;;;4808301;29;20214;-86
2023/01/26 11:55:22;;;;;;;51.93;19.73;;;3.80;1.00;;;;;;4799784;29;20187;-84
2023/01/26 11:58:06;;;;;;;42.15;18.10;;;3.70;1.00;;;;;;4805778;29;20191;-85
2023/01/26 12:00:41;;;;;;;45.40;18.17;;;3.80;50.60;;;;;;4804316;29;20288;-86
2023/01/26 12:03:27;;;;;;;41.05;17.73;;;3.90;99.90;;;;;;4822653;29;20238;-86
2023/01/26 12:05:57;;;;;;;38.85;16.73;;;4.00;82.30;;;;;;4824689;29;20203;-86
2023/01/26 12:08:40;;;;;;;34.47;14.95;;;4.10;1.00;;;;;;4795165;29;20583;-85
2023/01/26 12:11:21;;;;;;;39.42;16.05;;;4.10;1.00;;;;;;4799606;29;20618;-86
2023/01/26 12:14:02;;;;;;;40.63;17.50;;;4.10;1.00;;;;;;4790510;29;20691;-85
2023/01/26 12:16:58;;;;;;;34.13;14.30;;;4.00;1.00;;;;;;4802871;29;20194;-86
2023/01/26 12:19:58;;;;;;;35.80;15.90;;;4.00;35.50;;;;;;4796271;29;20222;-87
2023/01/26 12:22:29;;;;;;;34.78;12.82;;;3.90;99.90;;;;;;4807723;29;20202;-86
2023/01/26 12:25:14;;;;;;;39.55;14.52;;;3.80;99.90;;;;;;4790340;29;20638;-86
2023/01/26 12:27:54;;;;;;;38.33;15.02;;;3.80;99.90;;;;;;4806675;29;20266;-86
2023/01/26 12:30:50;;;;;;;42.05;15.05;;;3.70;99.90;;;;;;4791688;29;20218;-85
2023/01/26 12:33:16;;;;;;;36.00;13.05;;;3.70;99.90;;;;;;4795700;29;20214;-87
2023/01/26 12:35:58;;;;;;;38.60;14.67;;;3.70;99.90;;;;;;4799490;29;20213;-88
2023/01/26 12:38:38;;;;;;;36.42;14.35;;;3.70;99.90;;;;;;4808596;29;20223;-87
2023/01/26 12:41:32;;;;;;;40.92;14.27;;;3.70;99.90;;;;;;4804652;29;20214;-86
2023/01/26 12:44:28;;;;;;;31.60;13.18;;;3.90;99.90;;;;;;4805036;29;20295;-86
2023/01/26 12:47:02;;;;;;;34.67;12.82;;;4.00;99.90;;;;;;4798968;29;20316;-87
2023/01/26 12:49:39;;;;;;;25.83;10.57;;;4.00;99.90;;;;;;4777340;29;20760;-88
2023/01/26 12:52:48;;;;;;;24.63;9.50;;;4.10;99.90;;;;;;4797487;29;20190;-86
2023/01/26 12:55:39;;;;;;;27.30;9.88;;;4.10;99.90;;;;;;4804208;29;20551;-88
2023/01/26 12:58:26;;;;;;;25.65;10.80;;;4.20;99.90;;;;;;4798526;29;20195;-85
2023/01/26 13:00:59;;;;;;;35.67;12.23;;;4.20;99.90;;;;;;4808359;29;20305;-85
2023/01/26 13:03:31;;;;;;;95.63;46.88;;;4.10;99.90;;;;;;4802085;29;20221;-85
2023/01/26 13:05:58;;;;;;;48.55;19.33;;;4.10;99.90;;;;;;4803237;29;20555;-87
2023/01/26 13:08:52;;;;;;;32.20;16.60;;;4.20;99.90;;;;;;4791595;29;20201;-86
2023/01/26 13:11:38;;;;;;;42.22;16.70;;;4.20;99.90;;;;;;4770578;29;20236;-85
2023/01/26 13:14:57;;;;;;;31.50;11.45;;;4.20;99.90;;;;;;4801803;29;21040;-86
2023/01/26 13:17:24;;;;;;;33.83;12.00;;;4.20;99.90;;;;;;4797373;29;20198;-86
2023/01/26 13:19:58;;;;;;;34.72;13.75;;;4.20;99.90;;;;;;4793595;29;20201;-87
2023/01/26 13:22:41;;;;;;;31.13;11.50;;;4.10;1.00;;;;;;4806006;29;20220;-87
2023/01/26 13:25:17;;;;;;;38.08;14.05;;;4.10;1.00;;;;;;4806184;29;20276;-86
2023/01/26 13:27:55;;;;;;;33.13;14.57;;;4.10;1.00;;;;;;4803484;29;20698;-86
2023/01/26 13:30:24;;;;;;;49.35;15.05;;;4.10;1.00;;;;;;4811531;29;20229;-86
2023/01/26 13:32:54;;;;;;;42.60;16.05;;;4.10;1.00;;;;;;4798017;29;20230;-86
2023/01/26 13:35:22;;;;;;;46.08;16.42;;;4.10;1.00;;;;;;4802682;29;20190;-86
2023/01/26 13:38:00;;;;;;;53.45;16.58;;;4.10;1.00;;;;;;4798289;29;20202;-87
2023/01/26 13:40:39;;;;;;;64.75;17.13;;;4.20;1.00;;;;;;4801047;29;20190;-86
2023/01/26 13:43:17;;;;;;;68.00;22.40;;;4.20;1.00;;;;;;4803484;29;20222;-87
2023/01/26 13:46:10;;;;;;;61.25;18.30;;;4.20;1.00;;;;;;4789770;29;20277;-86